sensor_id;sensor_type;location;lat;lon;timestamp;pressure;altitude;pressure_sealevel;temperature;humidity
61039;BME280;46919;45.816;3.104;2022-08-07T00:01:32;98119.22;;;19.83;40.96
61039;BME280;46919;45.816;3.104;2022-08-07T00:03:58;98126.06;;;19.80;40.78
61039;BME280;46919;45.816;3.104;2022-08-07T00:06:23;98124.69;;;19.78;40.82
61039;BME280;46919;45.816;3.104;2022-08-07T00:08:50;98123.06;;;19.77;40.83
61039;BME280;46919;45.816;3.104;2022-08-07T00:11:15;98120.56;;;19.75;40.95
61039;BME280;46919;45.816;3.104;2022-08-07T00:13:40;98117.81;;;19.75;40.95
61039;BME280;46919;45.816;3.104;2022-08-07T00:16:09;98107.41;;;19.77;40.80
61039;BME280;46919;45.816;3.104;2022-08-07T00:18:34;98121.94;;;19.72;40.77
61039;BME280;46919;45.816;3.104;2022-08-07T00:21:05;98114.84;;;19.61;40.89
61039;BME280;46919;45.816;3.104;2022-08-07T00:23:31;98115.13;;;19.60;41.01
61039;BME280;46919;45.816;3.104;2022-08-07T00:25:58;98115.38;;;19.63;40.91
61039;BME280;46919;45.816;3.104;2022-08-07T00:28:24;98108.56;;;19.55;41.16
61039;BME280;46919;45.816;3.104;2022-08-07T00:30:50;98103.91;;;19.56;40.89
61039;BME280;46919;45.816;3.104;2022-08-07T00:33:15;98108.28;;;19.52;41.15
61039;BME280;46919;45.816;3.104;2022-08-07T00:35:41;98111.00;;;19.57;40.84
61039;BME280;46919;45.816;3.104;2022-08-07T00:38:07;98107.72;;;19.55;40.90
61039;BME280;46919;45.816;3.104;2022-08-07T00:40:32;98108.00;;;19.53;40.81
61039;BME280;46919;45.816;3.104;2022-08-07T00:42:57;98106.09;;;19.59;40.73
61039;BME280;46919;45.816;3.104;2022-08-07T00:45:23;98104.97;;;19.60;40.70
61039;BME280;46919;45.816;3.104;2022-08-07T00:47:49;98101.94;;;19.62;40.61
61039;BME280;46919;45.816;3.104;2022-08-07T00:50:15;98102.78;;;19.57;40.56
61039;BME280;46919;45.816;3.104;2022-08-07T00:52:41;98102.53;;;19.53;40.61
61039;BME280;46919;45.816;3.104;2022-08-07T00:55:06;98096.78;;;19.50;40.76
61039;BME280;46919;45.816;3.104;2022-08-07T00:57:32;98098.97;;;19.53;40.91
61039;BME280;46919;45.816;3.104;2022-08-07T00:59:58;98100.63;;;19.54;40.83
61039;BME280;46919;45.816;3.104;2022-08-07T01:02:24;98102.00;;;19.46;41.28
61039;BME280;46919;45.816;3.104;2022-08-07T01:04:50;98103.91;;;19.51;41.23
61039;BME280;46919;45.816;3.104;2022-08-07T01:07:19;98102.81;;;19.52;41.04
61039;BME280;46919;45.816;3.104;2022-08-07T01:09:45;98103.38;;;19.54;40.98
61039;BME280;46919;45.816;3.104;2022-08-07T01:12:11;98107.47;;;19.51;40.83
61039;BME280;46919;45.816;3.104;2022-08-07T01:14:37;98105.00;;;19.50;40.84
61039;BME280;46919;45.816;3.104;2022-08-07T01:17:02;98109.41;;;19.41;40.86
61039;BME280;46919;45.816;3.104;2022-08-07T01:19:29;98113.81;;;19.31;41.29
61039;BME280;46919;45.816;3.104;2022-08-07T01:21:55;98111.63;;;19.33;41.24
61039;BME280;46919;45.816;3.104;2022-08-07T01:24:21;98109.97;;;19.32;41.81
61039;BME280;46919;45.816;3.104;2022-08-07T01:26:47;98106.97;;;19.24;41.63
61039;BME280;46919;45.816;3.104;2022-08-07T01:29:13;98109.44;;;19.15;41.72
61039;BME280;46919;45.816;3.104;2022-08-07T01:31:38;98110.81;;;19.17;41.95
61039;BME280;46919;45.816;3.104;2022-08-07T01:34:04;98109.47;;;19.10;42.05
61039;BME280;46919;45.816;3.104;2022-08-07T01:36:30;98106.97;;;19.03;42.28
61039;BME280;46919;45.816;3.104;2022-08-07T01:38:56;98107.81;;;18.93;42.45
61039;BME280;46919;45.816;3.104;2022-08-07T01:41:22;98120.63;;;18.82;42.64
61039;BME280;46919;45.816;3.104;2022-08-07T01:43:48;98114.09;;;18.73;42.84
61039;BME280;46919;45.816;3.104;2022-08-07T01:46:18;98108.88;;;18.72;42.64
61039;BME280;46919;45.816;3.104;2022-08-07T01:48:46;98112.69;;;18.60;43.10
61039;BME280;46919;45.816;3.104;2022-08-07T01:51:21;98117.06;;;18.61;43.80
61039;BME280;46919;45.816;3.104;2022-08-07T01:53:50;98120.34;;;18.58;43.50
61039;BME280;46919;45.816;3.104;2022-08-07T01:56:24;98113.47;;;18.45;43.57
61039;BME280;46919;45.816;3.104;2022-08-07T01:58:59;98107.72;;;18.42;43.49
61039;BME280;46919;45.816;3.104;2022-08-07T02:01:31;98105.81;;;18.37;43.92
61039;BME280;46919;45.816;3.104;2022-08-07T02:04:01;98112.13;;;18.43;43.77
61039;BME280;46919;45.816;3.104;2022-08-07T02:06:29;98102.78;;;18.34;43.77
61039;BME280;46919;45.816;3.104;2022-08-07T02:08:58;98101.13;;;18.22;44.30
61039;BME280;46919;45.816;3.104;2022-08-07T02:11:25;98103.59;;;18.24;44.17
61039;BME280;46919;45.816;3.104;2022-08-07T02:13:52;98101.16;;;18.38;43.64
61039;BME280;46919;45.816;3.104;2022-08-07T02:16:19;98104.41;;;18.29;43.66
61039;BME280;46919;45.816;3.104;2022-08-07T02:18:48;98101.69;;;18.24;44.18
61039;BME280;46919;45.816;3.104;2022-08-07T02:21:15;98092.63;;;18.19;44.16
61039;BME280;46919;45.816;3.104;2022-08-07T02:23:42;98100.00;;;18.13;44.33
61039;BME280;46919;45.816;3.104;2022-08-07T02:26:09;98089.56;;;18.00;44.75
61039;BME280;46919;45.816;3.104;2022-08-07T02:28:36;98101.28;;;17.90;44.81
61039;BME280;46919;45.816;3.104;2022-08-07T02:31:04;98093.03;;;17.85;44.98
61039;BME280;46919;45.816;3.104;2022-08-07T02:33:30;98097.97;;;17.83;45.21
61039;BME280;46919;45.816;3.104;2022-08-07T02:35:57;98092.22;;;17.84;44.91
61039;BME280;46919;45.816;3.104;2022-08-07T02:38:27;98100.91;;;17.76;45.64
61039;BME280;46919;45.816;3.104;2022-08-07T02:40:54;98099.25;;;17.70;45.29
61039;BME280;46919;45.816;3.104;2022-08-07T02:43:21;98102.47;;;17.56;45.53
61039;BME280;46919;45.816;3.104;2022-08-07T02:45:48;98113.34;;;17.46;45.84
61039;BME280;46919;45.816;3.104;2022-08-07T02:48:14;98108.41;;;17.43;46.07
61039;BME280;46919;45.816;3.104;2022-08-07T02:50:42;98105.06;;;17.31;46.18
61039;BME280;46919;45.816;3.104;2022-08-07T02:53:11;98103.88;;;17.16;46.89
61039;BME280;46919;45.816;3.104;2022-08-07T02:55:41;98102.75;;;17.17;46.87
61039;BME280;46919;45.816;3.104;2022-08-07T02:58:13;98100.81;;;17.13;46.82
61039;BME280;46919;45.816;3.104;2022-08-07T03:00:40;98099.16;;;17.07;47.06
61039;BME280;46919;45.816;3.104;2022-08-07T03:03:08;98100.47;;;16.99;47.35
61039;BME280;46919;45.816;3.104;2022-08-07T03:05:35;98103.72;;;16.96;47.74
61039;BME280;46919;45.816;3.104;2022-08-07T03:08:03;98103.75;;;17.01;47.60
61039;BME280;46919;45.816;3.104;2022-08-07T03:10:30;98096.59;;;16.95;47.89
61039;BME280;46919;45.816;3.104;2022-08-07T03:12:56;98104.09;;;16.82;48.26
61039;BME280;46919;45.816;3.104;2022-08-07T03:15:22;98108.44;;;16.78;48.30
61039;BME280;46919;45.816;3.104;2022-08-07T03:17:47;98105.78;;;16.56;48.61
61039;BME280;46919;45.816;3.104;2022-08-07T03:20:13;98109.69;;;16.38;49.12
61039;BME280;46919;45.816;3.104;2022-08-07T03:22:41;98104.16;;;16.28;49.56
61039;BME280;46919;45.816;3.104;2022-08-07T03:25:07;98104.56;;;16.15;49.65
61039;BME280;46919;45.816;3.104;2022-08-07T03:27:33;98105.75;;;16.02;50.17
61039;BME280;46919;45.816;3.104;2022-08-07T03:29:59;98104.31;;;15.94;50.19
61039;BME280;46919;45.816;3.104;2022-08-07T03:32:32;98113.56;;;15.93;50.42
61039;BME280;46919;45.816;3.104;2022-08-07T03:35:00;98111.59;;;15.88;50.59
61039;BME280;46919;45.816;3.104;2022-08-07T03:37:28;98110.69;;;15.83;50.57
61039;BME280;46919;45.816;3.104;2022-08-07T03:39:55;98109.16;;;15.70;51.08
61039;BME280;46919;45.816;3.104;2022-08-07T03:42:21;98103.34;;;15.61;51.29
61039;BME280;46919;45.816;3.104;2022-08-07T03:44:48;98104.34;;;15.55;51.58
61039;BME280;46919;45.816;3.104;2022-08-07T03:47:14;98104.44;;;15.43;51.69
61039;BME280;46919;45.816;3.104;2022-08-07T03:49:42;98109.75;;;15.33;52.06
61039;BME280;46919;45.816;3.104;2022-08-07T03:52:07;98105.06;;;15.28;52.11
61039;BME280;46919;45.816;3.104;2022-08-07T03:54:34;98103.88;;;15.24;52.24
61039;BME280;46919;45.816;3.104;2022-08-07T03:57:00;98105.97;;;15.17;52.43
61039;BME280;46919;45.816;3.104;2022-08-07T03:59:27;98108.63;;;15.12;52.50
61039;BME280;46919;45.816;3.104;2022-08-07T04:01:54;98107.38;;;15.19;52.49
61039;BME280;46919;45.816;3.104;2022-08-07T04:04:20;98108.19;;;15.20;52.54
61039;BME280;46919;45.816;3.104;2022-08-07T04:06:46;98108.13;;;15.15;52.74
61039;BME280;46919;45.816;3.104;2022-08-07T04:09:13;98112.41;;;15.11;52.96
61039;BME280;46919;45.816;3.104;2022-08-07T04:11:39;98111.25;;;15.07;53.48
61039;BME280;46919;45.816;3.104;2022-08-07T04:14:05;98117.13;;;14.98;53.32
61039;BME280;46919;45.816;3.104;2022-08-07T04:16:32;98115.88;;;14.89;53.92
61039;BME280;46919;45.816;3.104;2022-08-07T04:18:58;98112.50;;;14.82;54.03
61039;BME280;46919;45.816;3.104;2022-08-07T04:21:24;98121.16;;;14.79;54.04
61039;BME280;46919;45.816;3.104;2022-08-07T04:23:50;98122.63;;;14.70;54.45
61039;BME280;46919;45.816;3.104;2022-08-07T04:26:15;98119.66;;;14.71;54.33
61039;BME280;46919;45.816;3.104;2022-08-07T04:28:41;98119.84;;;14.64;54.60
61039;BME280;46919;45.816;3.104;2022-08-07T04:31:08;98124.09;;;14.60;54.51
61039;BME280;46919;45.816;3.104;2022-08-07T04:33:35;98127.66;;;14.61;54.62
61039;BME280;46919;45.816;3.104;2022-08-07T04:36:03;98129.44;;;14.55;54.76
61039;BME280;46919;45.816;3.104;2022-08-07T04:38:29;98125.53;;;14.51;55.00
61039;BME280;46919;45.816;3.104;2022-08-07T04:40:54;98128.41;;;14.44;55.25
61039;BME280;46919;45.816;3.104;2022-08-07T04:43:25;98127.34;;;14.45;55.37
61039;BME280;46919;45.816;3.104;2022-08-07T04:53:38;98133.22;;;14.25;55.85
61039;BME280;46919;45.816;3.104;2022-08-07T04:56:29;98130.09;;;14.34;55.79
61039;BME280;46919;45.816;3.104;2022-08-07T04:59:03;98134.81;;;14.38;55.71
61039;BME280;46919;45.816;3.104;2022-08-07T05:01:43;98137.00;;;14.53;55.50
61039;BME280;46919;45.816;3.104;2022-08-07T05:04:15;98133.94;;;14.49;55.53
61039;BME280;46919;45.816;3.104;2022-08-07T05:07:00;98147.75;;;14.60;56.07
61039;BME280;46919;45.816;3.104;2022-08-07T05:09:45;98146.22;;;14.81;56.43
61039;BME280;46919;45.816;3.104;2022-08-07T05:12:16;98147.63;;;14.83;55.29
61039;BME280;46919;45.816;3.104;2022-08-07T05:14:45;98152.16;;;14.78;55.65
61039;BME280;46919;45.816;3.104;2022-08-07T05:17:15;98151.66;;;14.81;56.17
61039;BME280;46919;45.816;3.104;2022-08-07T05:19:52;98154.66;;;14.96;56.00
61039;BME280;46919;45.816;3.104;2022-08-07T05:22:20;98154.16;;;14.99;55.92
61039;BME280;46919;45.816;3.104;2022-08-07T05:24:47;98159.75;;;14.93;56.18
61039;BME280;46919;45.816;3.104;2022-08-07T05:27:16;98158.09;;;14.92;56.16
61039;BME280;46919;45.816;3.104;2022-08-07T05:29:44;98156.88;;;14.99;56.54
61039;BME280;46919;45.816;3.104;2022-08-07T05:32:11;98158.63;;;15.23;56.39
61039;BME280;46919;45.816;3.104;2022-08-07T05:34:39;98152.63;;;15.43;56.01
61039;BME280;46919;45.816;3.104;2022-08-07T05:37:06;98158.75;;;15.50;56.05
61039;BME280;46919;45.816;3.104;2022-08-07T05:39:34;98172.44;;;15.38;56.04
61039;BME280;46919;45.816;3.104;2022-08-07T05:42:00;98170.56;;;15.38;55.99
61039;BME280;46919;45.816;3.104;2022-08-07T05:44:28;98170.16;;;15.47;56.11
61039;BME280;46919;45.816;3.104;2022-08-07T05:46:55;98168.66;;;15.56;55.19
61039;BME280;46919;45.816;3.104;2022-08-07T05:49:21;98166.31;;;15.65;54.96
61039;BME280;46919;45.816;3.104;2022-08-07T05:51:47;98170.00;;;15.75;54.67
61039;BME280;46919;45.816;3.104;2022-08-07T05:54:15;98163.44;;;15.93;54.49
61039;BME280;46919;45.816;3.104;2022-08-07T05:56:41;98163.59;;;16.04;53.88
61039;BME280;46919;45.816;3.104;2022-08-07T05:59:12;98161.19;;;16.07;53.45
61039;BME280;46919;45.816;3.104;2022-08-07T06:01:39;98161.38;;;16.23;53.35
61039;BME280;46919;45.816;3.104;2022-08-07T06:04:05;98161.97;;;16.30;53.37
61039;BME280;46919;45.816;3.104;2022-08-07T06:06:33;98163.69;;;16.36;52.93
61039;BME280;46919;45.816;3.104;2022-08-07T06:08:59;98161.84;;;16.42;52.92
61039;BME280;46919;45.816;3.104;2022-08-07T06:11:25;98161.91;;;16.47;52.69
61039;BME280;46919;45.816;3.104;2022-08-07T06:13:51;98166.63;;;16.57;52.33
61039;BME280;46919;45.816;3.104;2022-08-07T06:16:17;98163.19;;;16.66;52.28
61039;BME280;46919;45.816;3.104;2022-08-07T06:18:44;98164.31;;;16.71;51.99
61039;BME280;46919;45.816;3.104;2022-08-07T06:21:11;98169.13;;;16.86;52.74
61039;BME280;46919;45.816;3.104;2022-08-07T06:23:37;98156.25;;;17.08;51.97
61039;BME280;46919;45.816;3.104;2022-08-07T06:26:04;98161.19;;;17.11;51.41
61039;BME280;46919;45.816;3.104;2022-08-07T06:28:30;98161.19;;;17.11;50.99
61039;BME280;46919;45.816;3.104;2022-08-07T06:30:56;98161.69;;;17.08;51.05
61039;BME280;46919;45.816;3.104;2022-08-07T06:33:23;98170.97;;;17.07;51.22
61039;BME280;46919;45.816;3.104;2022-08-07T06:35:49;98171.00;;;17.12;50.47
61039;BME280;46919;45.816;3.104;2022-08-07T06:38:14;98174.03;;;17.16;49.89
61039;BME280;46919;45.816;3.104;2022-08-07T06:40:51;98158.81;;;17.25;49.17
61039;BME280;46919;45.816;3.104;2022-08-07T06:43:20;98163.50;;;17.30;49.58
61039;BME280;46919;45.816;3.104;2022-08-07T06:45:47;98156.94;;;17.31;49.40
61039;BME280;46919;45.816;3.104;2022-08-07T06:48:12;98161.41;;;17.42;49.18
61039;BME280;46919;45.816;3.104;2022-08-07T06:50:40;98159.31;;;17.54;48.63
61039;BME280;46919;45.816;3.104;2022-08-07T06:53:07;98162.84;;;17.55;48.71
61039;BME280;46919;45.816;3.104;2022-08-07T06:55:34;98163.19;;;17.64;48.67
61039;BME280;46919;45.816;3.104;2022-08-07T06:58:02;98160.41;;;17.59;48.65
61039;BME280;46919;45.816;3.104;2022-08-07T07:00:32;98165.41;;;17.72;48.34
61039;BME280;46919;45.816;3.104;2022-08-07T07:02:58;98153.63;;;17.71;48.32
61039;BME280;46919;45.816;3.104;2022-08-07T07:05:24;98158.31;;;17.76;48.35
61039;BME280;46919;45.816;3.104;2022-08-07T07:07:50;98153.97;;;17.80;47.78
61039;BME280;46919;45.816;3.104;2022-08-07T07:10:26;98153.50;;;17.88;47.35
61039;BME280;46919;45.816;3.104;2022-08-07T07:12:56;98164.50;;;17.99;47.06
61039;BME280;46919;45.816;3.104;2022-08-07T07:15:33;98157.97;;;18.05;47.04
61039;BME280;46919;45.816;3.104;2022-08-07T07:20:49;98164.34;;;18.26;46.95
61039;BME280;46919;45.816;3.104;2022-08-07T07:23:15;98161.88;;;18.35;46.72
61039;BME280;46919;45.816;3.104;2022-08-07T07:25:42;98160.53;;;18.42;46.51
61039;BME280;46919;45.816;3.104;2022-08-07T07:28:15;98166.31;;;18.51;45.81
61039;BME280;46919;45.816;3.104;2022-08-07T07:30:49;98165.53;;;18.61;45.84
61039;BME280;46919;45.816;3.104;2022-08-07T07:33:18;98162.53;;;18.73;45.76
61039;BME280;46919;45.816;3.104;2022-08-07T07:35:47;98167.50;;;18.86;45.82
61039;BME280;46919;45.816;3.104;2022-08-07T07:38:17;98171.34;;;18.85;45.41
61039;BME280;46919;45.816;3.104;2022-08-07T07:40:43;98166.97;;;18.89;45.76
61039;BME280;46919;45.816;3.104;2022-08-07T07:43:11;98173.81;;;18.92;45.37
61039;BME280;46919;45.816;3.104;2022-08-07T07:45:39;98173.56;;;19.04;45.37
61039;BME280;46919;45.816;3.104;2022-08-07T07:48:06;98169.47;;;19.11;45.28
61039;BME280;46919;45.816;3.104;2022-08-07T07:50:35;98168.91;;;19.14;45.49
61039;BME280;46919;45.816;3.104;2022-08-07T07:53:01;98170.00;;;19.29;45.26
61039;BME280;46919;45.816;3.104;2022-08-07T07:55:27;98163.97;;;19.37;45.25
61039;BME280;46919;45.816;3.104;2022-08-07T07:57:54;98159.28;;;19.53;45.42
61039;BME280;46919;45.816;3.104;2022-08-07T08:00:21;98157.06;;;19.55;45.48
61039;BME280;46919;45.816;3.104;2022-08-07T08:02:49;98153.22;;;19.61;45.35
61039;BME280;46919;45.816;3.104;2022-08-07T08:05:17;98160.31;;;19.72;45.59
61039;BME280;46919;45.816;3.104;2022-08-07T08:07:45;98159.72;;;20.01;45.95
61039;BME280;46919;45.816;3.104;2022-08-07T08:10:11;98159.09;;;20.20;45.42
61039;BME280;46919;45.816;3.104;2022-08-07T08:12:38;98158.50;;;20.28;45.44
61039;BME280;46919;45.816;3.104;2022-08-07T08:15:04;98157.06;;;20.41;45.56
61039;BME280;46919;45.816;3.104;2022-08-07T08:17:30;98156.78;;;20.42;45.29
61039;BME280;46919;45.816;3.104;2022-08-07T08:20:03;98156.75;;;20.53;45.65
61039;BME280;46919;45.816;3.104;2022-08-07T08:22:29;98149.50;;;20.72;45.46
61039;BME280;46919;45.816;3.104;2022-08-07T08:25:14;98157.66;;;20.88;45.43
61039;BME280;46919;45.816;3.104;2022-08-07T08:28:02;98147.69;;;20.97;44.89
61039;BME280;46919;45.816;3.104;2022-08-07T08:30:32;98146.56;;;21.03;44.93
61039;BME280;46919;45.816;3.104;2022-08-07T08:33:01;98151.47;;;21.06;45.04
61039;BME280;46919;45.816;3.104;2022-08-07T08:35:28;98147.50;;;21.23;44.90
61039;BME280;46919;45.816;3.104;2022-08-07T08:38:01;98149.25;;;21.43;44.82
61039;BME280;46919;45.816;3.104;2022-08-07T08:40:33;98150.81;;;21.54;44.62
61039;BME280;46919;45.816;3.104;2022-08-07T08:45:45;98148.00;;;21.59;45.13
61039;BME280;46919;45.816;3.104;2022-08-07T08:51:09;98137.41;;;21.96;44.58
61039;BME280;46919;45.816;3.104;2022-08-07T08:56:14;98151.44;;;22.18;44.25
61039;BME280;46919;45.816;3.104;2022-08-07T08:59:19;98138.44;;;22.24;44.37
61039;BME280;46919;45.816;3.104;2022-08-07T09:02:18;98140.13;;;22.44;44.69
61039;BME280;46919;45.816;3.104;2022-08-07T09:07:43;98139.69;;;22.37;44.01
61039;BME280;46919;45.816;3.104;2022-08-07T09:10:23;98134.50;;;22.54;43.65
61039;BME280;46919;45.816;3.104;2022-08-07T09:12:58;98136.56;;;22.63;43.25
61039;BME280;46919;45.816;3.104;2022-08-07T09:15:43;98135.47;;;22.64;43.32
61039;BME280;46919;45.816;3.104;2022-08-07T09:18:41;98137.25;;;22.73;42.74
61039;BME280;46919;45.816;3.104;2022-08-07T09:24:08;98124.66;;;22.86;42.51
61039;BME280;46919;45.816;3.104;2022-08-07T09:27:01;98133.72;;;22.87;42.51
61039;BME280;46919;45.816;3.104;2022-08-07T09:32:11;98132.38;;;23.03;42.52
61039;BME280;46919;45.816;3.104;2022-08-07T09:40:15;98129.25;;;23.43;40.85
61039;BME280;46919;45.816;3.104;2022-08-07T09:52:22;98123.34;;;23.63;40.56
61039;BME280;46919;45.816;3.104;2022-08-07T10:00:17;98120.22;;;24.12;40.00
61039;BME280;46919;45.816;3.104;2022-08-07T10:05:36;98115.38;;;24.31;39.52
61039;BME280;46919;45.816;3.104;2022-08-07T10:16:08;98100.41;;;24.60;38.23
61039;BME280;46919;45.816;3.104;2022-08-07T10:18:58;98089.53;;;24.64;38.24
61039;BME280;46919;45.816;3.104;2022-08-07T10:26:54;98090.34;;;24.87;37.69
61039;BME280;46919;45.816;3.104;2022-08-07T10:29:51;98076.16;;;25.02;36.43
61039;BME280;46919;45.816;3.104;2022-08-07T10:37:41;98065.97;;;25.34;36.68
61039;BME280;46919;45.816;3.104;2022-08-07T10:40:18;98064.91;;;25.53;35.92
61039;BME280;46919;45.816;3.104;2022-08-07T10:43:06;98067.25;;;25.68;34.90
61039;BME280;46919;45.816;3.104;2022-08-07T10:45:37;98069.72;;;25.78;35.82
61039;BME280;46919;45.816;3.104;2022-08-07T10:48:30;98065.97;;;25.74;36.40
61039;BME280;46919;45.816;3.104;2022-08-07T10:51:04;98054.75;;;25.88;35.60
61039;BME280;46919;45.816;3.104;2022-08-07T10:53:53;98062.75;;;25.90;35.87
61039;BME280;46919;45.816;3.104;2022-08-07T10:56:39;98056.63;;;26.01;36.06
61039;BME280;46919;45.816;3.104;2022-08-07T11:02:17;98058.47;;;26.24;35.66
61039;BME280;46919;45.816;3.104;2022-08-07T11:04:54;98047.53;;;26.27;35.49
61039;BME280;46919;45.816;3.104;2022-08-07T11:07:48;98043.44;;;26.07;35.67
61039;BME280;46919;45.816;3.104;2022-08-07T11:10:20;98040.84;;;26.19;35.68
61039;BME280;46919;45.816;3.104;2022-08-07T11:12:57;98037.75;;;26.21;36.23
61039;BME280;46919;45.816;3.104;2022-08-07T11:15:26;98038.25;;;26.32;35.41
61039;BME280;46919;45.816;3.104;2022-08-07T11:18:32;98030.78;;;26.41;34.87
61039;BME280;46919;45.816;3.104;2022-08-07T11:21:10;98027.66;;;26.25;36.06
61039;BME280;46919;45.816;3.104;2022-08-07T11:23:59;98027.16;;;26.40;35.68
61039;BME280;46919;45.816;3.104;2022-08-07T11:29:31;98035.97;;;26.86;35.02
61039;BME280;46919;45.816;3.104;2022-08-07T11:32:04;98032.53;;;26.98;34.93
61039;BME280;46919;45.816;3.104;2022-08-07T11:34:38;98020.34;;;26.73;34.70
61039;BME280;46919;45.816;3.104;2022-08-07T11:37:16;98021.63;;;26.58;35.90
61039;BME280;46919;45.816;3.104;2022-08-07T11:40:06;98031.69;;;26.98;35.34
61039;BME280;46919;45.816;3.104;2022-08-07T11:45:29;98031.63;;;27.33;34.60
61039;BME280;46919;45.816;3.104;2022-08-07T11:53:30;98025.88;;;27.46;34.93
61039;BME280;46919;45.816;3.104;2022-08-07T11:58:40;98022.13;;;28.11;33.83
61039;BME280;46919;45.816;3.104;2022-08-07T12:07:16;98013.69;;;27.69;34.46
61039;BME280;46919;45.816;3.104;2022-08-07T12:12:25;98007.44;;;28.31;32.87
61039;BME280;46919;45.816;3.104;2022-08-07T12:15:02;98009.09;;;28.66;33.47
61039;BME280;46919;45.816;3.104;2022-08-07T12:17:48;98002.19;;;28.72;33.18
61039;BME280;46919;45.816;3.104;2022-08-07T12:20:23;98001.81;;;29.07;33.20
61039;BME280;46919;45.816;3.104;2022-08-07T12:25:47;98000.84;;;29.24;31.52
61039;BME280;46919;45.816;3.104;2022-08-07T12:28:25;97992.25;;;28.83;31.31
61039;BME280;46919;45.816;3.104;2022-08-07T12:30:55;97988.22;;;28.93;31.89
61039;BME280;46919;45.816;3.104;2022-08-07T12:33:24;98009.66;;;29.38;31.28
61039;BME280;46919;45.816;3.104;2022-08-07T12:35:54;97995.16;;;29.57;31.02
61039;BME280;46919;45.816;3.104;2022-08-07T12:38:22;97991.81;;;29.52;30.57
61039;BME280;46919;45.816;3.104;2022-08-07T12:40:49;97996.81;;;29.71;30.47
61039;BME280;46919;45.816;3.104;2022-08-07T12:43:19;98003.56;;;29.82;30.68
61039;BME280;46919;45.816;3.104;2022-08-07T12:49:03;97992.88;;;29.84;30.35
61039;BME280;46919;45.816;3.104;2022-08-07T12:51:39;97990.19;;;29.63;30.84
61039;BME280;46919;45.816;3.104;2022-08-07T12:54:24;97994.03;;;29.83;30.38
61039;BME280;46919;45.816;3.104;2022-08-07T12:56:53;97986.00;;;29.81;29.40
61039;BME280;46919;45.816;3.104;2022-08-07T12:59:24;97985.88;;;30.03;29.64
61039;BME280;46919;45.816;3.104;2022-08-07T13:10:21;97978.75;;;30.58;29.05
61039;BME280;46919;45.816;3.104;2022-08-07T13:15:55;97967.09;;;31.13;27.50
61039;BME280;46919;45.816;3.104;2022-08-07T13:18:33;97960.94;;;31.07;27.59
61039;BME280;46919;45.816;3.104;2022-08-07T13:21:24;97966.44;;;31.19;27.43
61039;BME280;46919;45.816;3.104;2022-08-07T13:24:00;97960.34;;;31.30;26.38
61039;BME280;46919;45.816;3.104;2022-08-07T13:26:38;97959.50;;;31.13;27.45
61039;BME280;46919;45.816;3.104;2022-08-07T13:29:18;97952.41;;;31.16;25.93
61039;BME280;46919;45.816;3.104;2022-08-07T13:32:06;97951.59;;;31.31;26.51
61039;BME280;46919;45.816;3.104;2022-08-07T13:34:49;97952.03;;;31.49;26.97
61039;BME280;46919;45.816;3.104;2022-08-07T13:40:12;97953.66;;;32.02;24.40
61039;BME280;46919;45.816;3.104;2022-08-07T13:42:41;97941.00;;;32.08;24.83
61039;BME280;46919;45.816;3.104;2022-08-07T13:45:09;97946.97;;;32.06;25.19
61039;BME280;46919;45.816;3.104;2022-08-07T13:47:36;97938.16;;;32.43;24.93
61039;BME280;46919;45.816;3.104;2022-08-07T13:50:04;97936.78;;;32.53;24.78
61039;BME280;46919;45.816;3.104;2022-08-07T13:52:32;97939.09;;;32.51;24.44
61039;BME280;46919;45.816;3.104;2022-08-07T13:55:07;97944.50;;;32.21;25.02
61039;BME280;46919;45.816;3.104;2022-08-07T13:57:37;97929.34;;;32.41;23.21
61039;BME280;46919;45.816;3.104;2022-08-07T14:00:04;97929.84;;;32.47;23.92
61039;BME280;46919;45.816;3.104;2022-08-07T14:02:32;97934.84;;;32.57;24.21
61039;BME280;46919;45.816;3.104;2022-08-07T14:05:01;97930.59;;;32.63;24.94
61039;BME280;46919;45.816;3.104;2022-08-07T14:07:37;97922.03;;;32.76;23.66
61039;BME280;46919;45.816;3.104;2022-08-07T14:10:03;97912.75;;;32.52;24.00
61039;BME280;46919;45.816;3.104;2022-08-07T14:12:50;97918.28;;;32.68;24.21
61039;BME280;46919;45.816;3.104;2022-08-07T14:15:30;97924.81;;;32.76;23.54
61039;BME280;46919;45.816;3.104;2022-08-07T14:18:01;97918.84;;;32.77;23.66
61039;BME280;46919;45.816;3.104;2022-08-07T14:20:29;97911.00;;;33.10;22.60
61039;BME280;46919;45.816;3.104;2022-08-07T14:23:15;97913.38;;;33.08;22.54
61039;BME280;46919;45.816;3.104;2022-08-07T14:25:43;97908.16;;;33.06;21.82
61039;BME280;46919;45.816;3.104;2022-08-07T14:28:13;97908.34;;;32.94;22.54
61039;BME280;46919;45.816;3.104;2022-08-07T14:30:39;97905.16;;;32.95;23.14
61039;BME280;46919;45.816;3.104;2022-08-07T14:33:11;97900.56;;;33.07;22.88
61039;BME280;46919;45.816;3.104;2022-08-07T14:35:39;97900.69;;;33.14;23.46
61039;BME280;46919;45.816;3.104;2022-08-07T14:38:07;97892.63;;;33.09;23.41
61039;BME280;46919;45.816;3.104;2022-08-07T14:40:33;97892.91;;;33.03;23.72
61039;BME280;46919;45.816;3.104;2022-08-07T14:43:05;97899.13;;;33.39;22.87
61039;BME280;46919;45.816;3.104;2022-08-07T14:45:49;97894.78;;;33.42;21.92
61039;BME280;46919;45.816;3.104;2022-08-07T14:48:18;97886.63;;;33.33;21.47
61039;BME280;46919;45.816;3.104;2022-08-07T14:50:47;97882.25;;;33.13;21.84
61039;BME280;46919;45.816;3.104;2022-08-07T14:53:15;97871.31;;;33.27;21.16
61039;BME280;46919;45.816;3.104;2022-08-07T14:55:41;97875.09;;;33.38;20.93
61039;BME280;46919;45.816;3.104;2022-08-07T14:58:10;97886.22;;;33.12;21.40
61039;BME280;46919;45.816;3.104;2022-08-07T15:00:38;97889.63;;;33.21;21.70
61039;BME280;46919;45.816;3.104;2022-08-07T15:03:07;97881.22;;;33.48;21.69
61039;BME280;46919;45.816;3.104;2022-08-07T15:05:33;97880.31;;;33.67;22.04
61039;BME280;46919;45.816;3.104;2022-08-07T15:08:03;97876.69;;;33.66;21.21
61039;BME280;46919;45.816;3.104;2022-08-07T15:10:30;97880.09;;;33.52;21.81
61039;BME280;46919;45.816;3.104;2022-08-07T15:13:04;97877.13;;;33.68;22.23